createdAt,value
2023-04-29T00:01:18.046Z,12.10
2023-04-29T00:03:45.086Z,12.13
2023-04-29T00:06:12.283Z,11.33
2023-04-29T00:08:39.440Z,11.87
2023-04-29T00:11:06.614Z,11.80
2023-04-29T00:13:33.504Z,12.70
2023-04-29T00:16:00.430Z,12.83
2023-04-29T00:18:27.384Z,11.00
2023-04-29T00:20:54.266Z,11.47
2023-04-29T00:23:21.153Z,11.97
2023-04-29T00:25:48.095Z,12.70
2023-04-29T00:28:14.964Z,12.30
2023-04-29T00:30:41.930Z,11.37
2023-04-29T00:33:08.910Z,12.50
2023-04-29T00:35:36.202Z,11.77
2023-04-29T00:38:03.116Z,12.53
2023-04-29T00:40:30.108Z,11.70
2023-04-29T00:42:57.290Z,12.60
2023-04-29T00:45:24.492Z,13.53
2023-04-29T00:47:51.567Z,13.10
2023-04-29T00:50:18.706Z,11.97
2023-04-29T00:52:46.016Z,13.63
2023-04-29T00:55:13.629Z,13.40
2023-04-29T00:57:40.597Z,13.60
2023-04-29T01:00:10.208Z,13.47
2023-04-29T01:02:37.780Z,14.10
2023-04-29T01:05:05.438Z,12.83
2023-04-29T01:07:57.580Z,14.47
2023-04-29T01:10:29.697Z,13.73
2023-04-29T01:13:03.827Z,12.90
2023-04-29T01:16:04.243Z,13.17
2023-04-29T01:18:41.573Z,13.30
2023-04-29T01:21:09.071Z,13.00
2023-04-29T01:23:36.294Z,12.90
2023-04-29T01:26:03.551Z,13.80
2023-04-29T01:29:02.471Z,14.17
2023-04-29T01:31:49.624Z,13.40
2023-04-29T01:34:48.156Z,13.60
2023-04-29T01:37:28.770Z,14.27
2023-04-29T01:40:30.749Z,15.37
2023-04-29T01:43:11.743Z,13.67
2023-04-29T01:45:44.935Z,14.10
2023-04-29T01:48:13.573Z,16.17
2023-04-29T01:50:41.263Z,15.77
2023-04-29T01:53:11.866Z,18.80
2023-04-29T01:55:39.293Z,17.03
2023-04-29T01:58:18.261Z,17.17
2023-04-29T02:01:06.229Z,17.37
2023-04-29T02:03:36.466Z,17.60
2023-04-29T02:06:07.021Z,17.70
2023-04-29T02:08:34.888Z,18.70
2023-04-29T02:11:02.094Z,17.67
2023-04-29T02:13:34.032Z,18.63
2023-04-29T02:16:12.881Z,19.37
2023-04-29T02:18:47.694Z,18.40
2023-04-29T02:21:14.658Z,20.40
2023-04-29T02:23:41.622Z,19.77
2023-04-29T02:26:09.768Z,19.30
2023-04-29T02:28:36.853Z,20.93
2023-04-29T02:31:04.625Z,20.03
2023-04-29T02:33:32.976Z,19.00
2023-04-29T02:35:59.965Z,19.67
2023-04-29T02:38:26.906Z,19.83
2023-04-29T02:40:53.830Z,18.87
2023-04-29T02:43:21.943Z,20.70
2023-04-29T02:45:48.957Z,20.77
2023-04-29T02:48:16.483Z,18.63
2023-04-29T02:50:43.369Z,19.10
2023-04-29T02:53:10.349Z,20.57
2023-04-29T02:55:38.003Z,18.33
2023-04-29T02:58:09.117Z,18.37
2023-04-29T03:00:36.054Z,17.93
2023-04-29T03:03:03.154Z,17.80
2023-04-29T03:05:30.172Z,17.60
2023-04-29T03:07:57.079Z,18.60
2023-04-29T03:10:24.301Z,17.10
2023-04-29T03:12:51.373Z,20.57
2023-04-29T03:15:18.353Z,19.93
2023-04-29T03:17:46.519Z,19.17
2023-04-29T03:20:14.093Z,17.83
2023-04-29T03:22:41.020Z,18.87
2023-04-29T03:25:10.592Z,19.80
2023-04-29T03:27:39.560Z,22.07
2023-04-29T03:30:08.296Z,21.83
2023-04-29T03:32:40.699Z,22.00
2023-04-29T03:35:07.974Z,22.13
2023-04-29T03:37:39.479Z,21.53
2023-04-29T03:40:17.118Z,21.70
2023-04-29T03:42:44.153Z,23.70
2023-04-29T03:45:14.300Z,23.13
2023-04-29T03:47:41.528Z,22.60
2023-04-29T03:50:09.024Z,25.10
2023-04-29T03:52:39.126Z,25.70
2023-04-29T03:55:12.641Z,26.03
2023-04-29T03:57:42.254Z,26.17
2023-04-29T04:00:10.782Z,26.17
2023-04-29T04:02:40.855Z,28.47
2023-04-29T04:05:11.004Z,26.33
2023-04-29T04:07:40.698Z,26.60
2023-04-29T04:10:26.057Z,25.80
2023-04-29T04:12:53.017Z,24.87
2023-04-29T04:15:22.609Z,23.43
2023-04-29T04:17:49.871Z,23.60
2023-04-29T04:20:17.348Z,24.00
2023-04-29T04:22:44.855Z,22.10
2023-04-29T04:25:23.613Z,23.00
2023-04-29T04:27:51.448Z,21.87
2023-04-29T04:30:30.779Z,23.07
2023-04-29T04:32:58.453Z,21.80
2023-04-29T04:35:25.518Z,23.27
2023-04-29T04:37:52.467Z,21.60
2023-04-29T04:40:19.442Z,23.40
2023-04-29T04:43:04.699Z,22.57
2023-04-29T04:45:32.017Z,21.43
2023-04-29T04:47:59.346Z,22.63
2023-04-29T04:50:30.260Z,20.17
2023-04-29T04:52:57.786Z,21.50
2023-04-29T04:55:43.153Z,20.40
2023-04-29T04:58:10.098Z,19.57
2023-04-29T05:00:38.973Z,20.00
2023-04-29T05:03:05.973Z,22.20
2023-04-29T05:05:33.952Z,20.50
2023-04-29T05:08:01.404Z,21.03
2023-04-29T05:10:38.419Z,19.20
2023-04-29T05:13:06.753Z,22.43
2023-04-29T05:15:35.761Z,20.77
2023-04-29T05:18:03.902Z,21.00
2023-04-29T05:20:31.558Z,21.93
2023-04-29T05:23:01.147Z,20.80
2023-04-29T05:25:30.573Z,20.77
2023-04-29T05:27:58.046Z,19.33
2023-04-29T05:30:27.653Z,20.13
2023-04-29T05:32:54.680Z,20.87
2023-04-29T05:35:22.443Z,20.70
2023-04-29T05:37:49.543Z,19.47
2023-04-29T05:40:53.134Z,20.03
2023-04-29T05:43:33.068Z,18.23
2023-04-29T05:46:00.585Z,19.90
2023-04-29T05:48:28.384Z,21.00
2023-04-29T05:50:55.377Z,19.30
2023-04-29T05:53:22.743Z,20.50
2023-04-29T05:55:51.466Z,19.90
2023-04-29T05:58:20.611Z,19.63
2023-04-29T06:00:49.397Z,20.63
2023-04-29T06:03:21.401Z,19.83
2023-04-29T06:05:54.014Z,19.17
2023-04-29T06:08:36.742Z,18.43
2023-04-29T06:11:25.993Z,20.90
2023-04-29T06:13:52.905Z,21.30
2023-04-29T06:16:20.125Z,20.70
2023-04-29T06:18:47.046Z,20.23
2023-04-29T06:21:15.840Z,21.63
2023-04-29T06:23:43.431Z,22.37
2023-04-29T06:26:16.203Z,21.80
2023-04-29T06:28:43.100Z,21.97
2023-04-29T06:31:10.194Z,21.93
2023-04-29T06:33:37.422Z,24.43
2023-04-29T06:36:05.735Z,23.13
2023-04-29T06:38:49.630Z,27.07
2023-04-29T06:41:35.058Z,25.27
2023-04-29T06:44:25.224Z,23.07
2023-04-29T06:47:00.403Z,24.53
2023-04-29T06:49:47.704Z,23.23
2023-04-29T06:52:14.969Z,24.93
2023-04-29T06:54:43.540Z,21.90
2023-04-29T06:57:11.602Z,23.40
2023-04-29T06:59:38.571Z,23.10
2023-04-29T07:02:05.476Z,22.27
2023-04-29T07:04:32.418Z,21.07
2023-04-29T07:06:59.606Z,21.67
2023-04-29T07:09:27.750Z,23.07
2023-04-29T07:11:55.342Z,20.97
2023-04-29T07:14:25.441Z,21.27
2023-04-29T07:16:55.925Z,23.23
2023-04-29T07:19:23.264Z,22.50
2023-04-29T07:21:50.200Z,20.23
2023-04-29T07:24:17.217Z,21.07
2023-04-29T07:26:47.034Z,20.27
2023-04-29T07:29:16.275Z,21.10
2023-04-29T07:31:43.416Z,20.90
2023-04-29T07:34:10.636Z,19.93
2023-04-29T07:36:37.840Z,19.77
2023-04-29T07:39:05.021Z,19.90
2023-04-29T07:41:32.538Z,19.23
2023-04-29T07:43:59.446Z,20.00
2023-04-29T07:46:26.434Z,19.90
2023-04-29T07:48:53.355Z,19.00
2023-04-29T07:51:20.278Z,19.73
2023-04-29T07:53:47.173Z,19.10
2023-04-29T07:56:14.433Z,20.10
2023-04-29T07:58:41.344Z,20.53
2023-04-29T08:01:12.267Z,19.73
2023-04-29T08:03:41.792Z,18.60
2023-04-29T08:06:10.417Z,19.93
2023-04-29T08:08:37.532Z,19.83
2023-04-29T08:11:04.720Z,20.10
2023-04-29T08:13:31.604Z,20.17
2023-04-29T08:15:58.566Z,19.40
2023-04-29T08:18:25.646Z,19.00
2023-04-29T08:20:52.548Z,20.50
2023-04-29T08:23:19.453Z,18.47
2023-04-29T08:25:46.517Z,21.10
2023-04-29T08:28:13.403Z,20.40
2023-04-29T08:30:43.374Z,20.90
2023-04-29T08:33:10.273Z,20.87
2023-04-29T08:35:37.654Z,23.80
2023-04-29T08:38:09.287Z,21.23
2023-04-29T08:40:49.110Z,21.70
2023-04-29T08:43:16.737Z,19.97
2023-04-29T08:45:44.402Z,19.77
2023-04-29T08:48:11.893Z,19.53
2023-04-29T08:50:41.408Z,18.67
2023-04-29T08:53:14.085Z,15.53
2023-04-29T08:55:46.047Z,19.40
2023-04-29T08:58:15.109Z,20.63
2023-04-29T09:00:45.390Z,18.07
2023-04-29T09:03:30.408Z,20.00
2023-04-29T09:06:01.026Z,18.30
2023-04-29T09:08:28.112Z,18.17
2023-04-29T09:10:55.128Z,17.50
2023-04-29T09:13:30.251Z,18.23
2023-04-29T09:15:57.516Z,16.30
2023-04-29T09:18:51.240Z,17.57
2023-04-29T09:21:27.201Z,19.47
2023-04-29T09:23:57.152Z,18.17
2023-04-29T09:26:25.096Z,17.57
2023-04-29T09:29:16.510Z,19.73
2023-04-29T09:31:43.570Z,17.93
2023-04-29T09:34:11.907Z,19.70
2023-04-29T09:36:46.532Z,19.37
2023-04-29T09:39:22.190Z,17.87
2023-04-29T09:41:55.231Z,19.43
2023-04-29T09:44:29.523Z,21.47
2023-04-29T09:47:06.399Z,20.13
2023-04-29T09:49:37.371Z,18.90
2023-04-29T09:52:16.647Z,21.00
2023-04-29T09:54:44.509Z,20.37
2023-04-29T09:57:15.659Z,19.60
2023-04-29T09:59:43.547Z,18.67
2023-04-29T10:02:18.679Z,18.87
2023-04-29T10:04:48.382Z,18.10
2023-04-29T10:07:17.435Z,18.20
2023-04-29T10:09:48.615Z,17.30
2023-04-29T10:12:21.189Z,19.70
2023-04-29T10:14:58.214Z,19.80
2023-04-29T10:17:57.093Z,19.17
2023-04-29T10:20:25.683Z,18.43
2023-04-29T10:22:54.985Z,21.03
2023-04-29T10:25:24.627Z,17.53
2023-04-29T10:27:53.625Z,19.27
2023-04-29T10:30:21.997Z,17.47
2023-04-29T10:32:52.520Z,18.00
2023-04-29T10:35:23.562Z,18.40
2023-04-29T10:37:51.873Z,15.90
2023-04-29T10:40:46.629Z,16.80
2023-04-29T10:43:14.051Z,15.03
2023-04-29T10:45:41.054Z,17.73
2023-04-29T10:48:13.125Z,18.13
2023-04-29T10:50:47.467Z,16.60
2023-04-29T10:53:19.933Z,17.80
2023-04-29T10:55:59.382Z,16.60
2023-04-29T10:58:45.508Z,17.40
2023-04-29T11:01:17.328Z,16.87
2023-04-29T11:03:59.913Z,17.90
2023-04-29T11:06:44.313Z,16.27
2023-04-29T11:09:19.091Z,16.80
2023-04-29T11:12:09.055Z,17.87
2023-04-29T11:14:50.656Z,16.73
2023-04-29T11:17:23.430Z,15.87
2023-04-29T11:19:51.704Z,15.90
2023-04-29T11:22:30.303Z,14.87
2023-04-29T11:25:06.654Z,15.10
2023-04-29T11:27:36.310Z,13.57
2023-04-29T11:30:06.589Z,13.33
2023-04-29T11:32:45.698Z,14.53
2023-04-29T11:35:19.585Z,13.57
2023-04-29T11:37:47.789Z,13.57
2023-04-29T11:40:15.676Z,14.13
2023-04-29T11:42:48.325Z,14.43
2023-04-29T11:45:17.661Z,13.20
2023-04-29T11:47:46.743Z,13.30
2023-04-29T11:50:19.221Z,12.50
2023-04-29T11:52:49.821Z,12.17
2023-04-29T11:55:16.831Z,11.53
2023-04-29T11:57:43.737Z,11.50
2023-04-29T12:00:13.774Z,12.23
2023-04-29T12:02:49.180Z,12.67
2023-04-29T12:05:17.472Z,12.90
2023-04-29T12:07:44.936Z,12.50
2023-04-29T12:10:12.430Z,11.57
2023-04-29T12:12:46.670Z,11.30
2023-04-29T12:15:14.492Z,12.20
2023-04-29T12:17:42.648Z,11.50
2023-04-29T12:20:12.050Z,12.13
2023-04-29T12:22:39.517Z,11.17
2023-04-29T12:25:08.028Z,11.43
2023-04-29T12:27:36.864Z,10.30
2023-04-29T12:30:09.761Z,9.80
2023-04-29T12:32:37.358Z,9.37
2023-04-29T12:35:04.505Z,9.97
2023-04-29T12:37:32.831Z,10.70
2023-04-29T12:39:59.793Z,9.47
2023-04-29T12:42:34.135Z,10.30
2023-04-29T12:45:01.170Z,10.37
2023-04-29T12:47:37.218Z,10.30
2023-04-29T12:50:07.120Z,9.00
2023-04-29T12:52:36.384Z,9.30
2023-04-29T12:55:04.645Z,8.60
2023-04-29T12:57:31.605Z,8.40
2023-04-29T12:59:58.512Z,6.83
2023-04-29T13:02:26.351Z,7.50
2023-04-29T13:04:53.584Z,6.73
2023-04-29T13:07:21.021Z,7.10
2023-04-29T13:09:47.946Z,6.90
2023-04-29T13:12:14.868Z,7.53
2023-04-29T13:14:41.772Z,7.30
2023-04-29T13:17:08.800Z,7.53
2023-04-29T13:19:50.639Z,6.17
2023-04-29T13:22:18.688Z,7.00
2023-04-29T13:24:45.948Z,9.80
2023-04-29T13:27:12.856Z,6.00
2023-04-29T13:29:40.078Z,8.47
2023-04-29T13:32:08.233Z,8.40
2023-04-29T13:34:35.294Z,7.00
2023-04-29T13:37:02.240Z,6.20
2023-04-29T13:39:29.118Z,6.40
2023-04-29T13:41:59.053Z,7.03
2023-04-29T13:44:34.174Z,6.50
2023-04-29T13:47:06.613Z,6.87
2023-04-29T13:52:53.773Z,5.70
2023-04-29T13:55:14.713Z,6.10
2023-04-29T14:00:25.056Z,5.07
2023-04-29T14:05:26.422Z,5.77
2023-04-29T14:07:53.529Z,7.07
2023-04-29T14:10:20.606Z,5.53
2023-04-29T14:12:48.680Z,5.97
2023-04-29T14:15:16.120Z,6.10
2023-04-29T14:17:43.033Z,5.60
2023-04-29T14:20:10.255Z,5.97
2023-04-29T14:22:37.118Z,5.37
2023-04-29T14:25:04.335Z,5.33
2023-04-29T14:27:31.380Z,5.70
2023-04-29T14:29:58.507Z,4.30
2023-04-29T14:32:25.523Z,5.00
2023-04-29T14:34:52.698Z,4.87
2023-04-29T14:37:19.655Z,4.77
2023-04-29T14:39:46.537Z,5.50
2023-04-29T14:42:14.971Z,5.40
2023-04-29T14:44:41.835Z,4.43
2023-04-29T14:47:09.125Z,5.50
2023-04-29T14:49:36.245Z,5.13
2023-04-29T14:52:03.701Z,4.40
2023-04-29T14:54:31.161Z,5.70
2023-04-29T14:56:58.044Z,4.73
2023-04-29T14:59:25.072Z,5.00
2023-04-29T15:01:51.961Z,5.00
2023-04-29T15:04:18.879Z,4.80
2023-04-29T15:06:45.923Z,5.00
2023-04-29T15:09:13.267Z,5.00
2023-04-29T15:11:40.155Z,4.47
2023-04-29T15:14:07.075Z,4.20
2023-04-29T15:16:35.093Z,4.97
2023-04-29T15:19:02.051Z,6.10
2023-04-29T15:21:28.906Z,5.73
2023-04-29T15:23:55.784Z,5.17
2023-04-29T15:26:22.683Z,6.17
2023-04-29T15:28:49.569Z,6.37
2023-04-29T15:31:16.704Z,6.80
2023-04-29T15:33:43.602Z,5.43
2023-04-29T15:36:10.733Z,5.23
2023-04-29T15:38:37.640Z,5.47
2023-04-29T15:41:04.547Z,6.03
2023-04-29T15:43:32.638Z,5.90
2023-04-29T15:46:00.070Z,6.83
2023-04-29T15:48:27.275Z,6.70
2023-04-29T15:50:54.202Z,7.20
2023-04-29T15:53:21.210Z,6.90
2023-04-29T15:55:48.117Z,7.30
2023-04-29T15:58:15.004Z,6.83
2023-04-29T16:00:41.955Z,7.10
2023-04-29T16:03:08.963Z,6.77
2023-04-29T16:05:36.995Z,5.80
2023-04-29T16:08:04.102Z,5.60
2023-04-29T16:10:31.042Z,5.40
2023-04-29T16:12:57.959Z,6.23
2023-04-29T16:15:24.862Z,6.50
2023-04-29T16:17:52.314Z,6.40
2023-04-29T16:20:20.625Z,5.83
2023-04-29T16:22:47.526Z,5.93
2023-04-29T16:25:14.453Z,6.27
2023-04-29T16:27:41.404Z,4.97
2023-04-29T16:30:09.030Z,5.10
2023-04-29T16:32:35.938Z,4.63
2023-04-29T16:35:03.129Z,5.13
2023-04-29T16:37:30.033Z,5.87
2023-04-29T16:39:56.925Z,6.13
2023-04-29T16:42:23.811Z,5.70
2023-04-29T16:44:50.682Z,6.73
2023-04-29T16:47:20.239Z,6.40
2023-04-29T16:49:47.316Z,5.70
2023-04-29T16:52:14.494Z,5.30
2023-04-29T16:54:41.588Z,6.27
2023-04-29T16:57:08.608Z,6.20
2023-04-29T16:59:35.710Z,5.93
2023-04-29T17:02:03.034Z,6.90
2023-04-29T17:04:31.467Z,6.57
2023-04-29T17:07:01.272Z,8.10
2023-04-29T17:09:28.332Z,7.70
2023-04-29T17:11:55.267Z,7.40
2023-04-29T17:14:22.904Z,6.90
2023-04-29T17:16:50.035Z,8.23
2023-04-29T17:19:17.901Z,8.20
2023-04-29T17:21:44.752Z,8.77
2023-04-29T17:24:11.878Z,8.27
2023-04-29T17:26:38.737Z,9.87
2023-04-29T17:29:05.605Z,8.43
2023-04-29T17:31:44.938Z,9.57
2023-04-29T17:34:23.498Z,8.57
2023-04-29T17:36:51.409Z,8.07
2023-04-29T17:39:18.516Z,9.30
2023-04-29T17:41:46.511Z,9.13
2023-04-29T17:44:13.382Z,8.77
2023-04-29T17:46:40.984Z,6.73
2023-04-29T17:49:07.907Z,6.80
2023-04-29T17:51:34.922Z,6.63
2023-04-29T17:54:05.436Z,6.30
2023-04-29T17:56:34.828Z,6.30
2023-04-29T17:59:02.994Z,6.67
2023-04-29T18:01:29.936Z,6.80
2023-04-29T18:03:56.924Z,7.40
2023-04-29T18:06:24.042Z,6.80
2023-04-29T18:08:51.049Z,7.30
2023-04-29T18:11:17.931Z,6.90
2023-04-29T18:13:44.814Z,8.07
2023-04-29T18:16:11.733Z,7.70
2023-04-29T18:18:38.641Z,8.27
2023-04-29T18:21:06.102Z,8.40
2023-04-29T18:23:33.081Z,8.20
2023-04-29T18:26:00.225Z,7.10
2023-04-29T18:28:28.905Z,7.23
2023-04-29T18:30:56.976Z,7.20
2023-04-29T18:33:25.240Z,8.30
2023-04-29T18:35:52.300Z,7.40
2023-04-29T18:38:19.254Z,7.03
2023-04-29T18:40:46.331Z,7.30
2023-04-29T18:43:17.118Z,6.87
2023-04-29T18:45:47.141Z,6.60
2023-04-29T18:48:14.938Z,5.80
2023-04-29T18:50:42.564Z,5.03
2023-04-29T18:53:09.549Z,6.00
2023-04-29T18:55:36.506Z,5.93
2023-04-29T18:58:03.384Z,4.80
2023-04-29T19:00:30.457Z,5.53
2023-04-29T19:02:57.727Z,5.57
2023-04-29T19:05:24.701Z,7.93
2023-04-29T19:07:51.593Z,7.00
2023-04-29T19:10:18.602Z,6.20
2023-04-29T19:12:45.508Z,8.27
2023-04-29T19:15:12.745Z,6.63
2023-04-29T19:17:39.829Z,5.77
2023-04-29T19:20:07.961Z,5.90
2023-04-29T19:22:34.831Z,6.20
2023-04-29T19:25:01.754Z,6.73
2023-04-29T19:27:28.594Z,6.23
2023-04-29T19:29:55.921Z,7.03
2023-04-29T19:32:22.886Z,8.40
2023-04-29T19:34:49.772Z,13.20
2023-04-29T19:37:16.655Z,22.80
2023-04-29T19:39:43.540Z,23.40
2023-04-29T19:42:10.832Z,23.07
2023-04-29T19:44:37.780Z,18.27
2023-04-29T19:47:04.776Z,12.97
2023-04-29T19:49:31.939Z,11.00
2023-04-29T19:51:58.923Z,9.33
2023-04-29T19:54:25.832Z,9.20
2023-04-29T19:56:52.740Z,8.70
2023-04-29T19:59:19.616Z,8.40
2023-04-29T20:01:46.705Z,6.80
2023-04-29T20:04:13.634Z,6.70
2023-04-29T20:06:40.811Z,6.97
2023-04-29T20:09:09.337Z,5.90
2023-04-29T20:11:36.508Z,6.73
2023-04-29T20:14:03.705Z,5.70
2023-04-29T20:16:32.129Z,5.80
2023-04-29T20:18:59.099Z,4.87
2023-04-29T20:21:26.175Z,4.67
2023-04-29T20:23:53.149Z,5.80
2023-04-29T20:26:20.115Z,4.00
2023-04-29T20:28:47.519Z,5.40
2023-04-29T20:31:14.460Z,5.10
2023-04-29T20:33:41.470Z,4.90
2023-04-29T20:36:08.359Z,5.50
2023-04-29T20:38:35.455Z,5.30
2023-04-29T20:41:03.502Z,4.83
2023-04-29T20:43:30.475Z,4.37
2023-04-29T20:45:58.470Z,3.70
2023-04-29T20:48:25.526Z,3.83
2023-04-29T20:50:52.461Z,3.27
2023-04-29T20:53:19.371Z,3.10
2023-04-29T20:55:46.609Z,4.90
2023-04-29T20:58:13.567Z,4.60
2023-04-29T21:00:40.751Z,5.40
2023-04-29T21:03:07.794Z,4.60
2023-04-29T21:05:34.697Z,4.30
2023-04-29T21:08:01.590Z,4.20
2023-04-29T21:10:28.474Z,4.00
2023-04-29T21:12:55.484Z,3.87
2023-04-29T21:15:22.498Z,4.20
2023-04-29T21:17:49.483Z,3.30
2023-04-29T21:20:17.186Z,3.43
2023-04-29T21:22:45.028Z,3.80
2023-04-29T21:25:11.896Z,3.30
2023-04-29T21:27:38.782Z,3.53
2023-04-29T21:30:06.295Z,3.27
2023-04-29T21:32:33.813Z,3.47
2023-04-29T21:35:00.892Z,3.33
2023-04-29T21:37:30.450Z,3.33
2023-04-29T21:39:58.135Z,3.97
2023-04-29T21:42:26.399Z,3.23
2023-04-29T21:44:58.786Z,3.80
2023-04-29T21:47:27.259Z,4.50
2023-04-29T21:49:54.872Z,3.70
2023-04-29T21:52:22.144Z,3.00
2023-04-29T21:54:49.042Z,3.43
2023-04-29T21:57:15.933Z,3.50
2023-04-29T21:59:42.859Z,3.53
2023-04-29T22:02:23.006Z,3.03
2023-04-29T22:04:53.446Z,3.43
2023-04-29T22:07:22.690Z,2.97
2023-04-29T22:09:49.823Z,2.77
2023-04-29T22:12:18.823Z,3.20
2023-04-29T22:14:46.517Z,2.73
2023-04-29T22:17:13.965Z,3.00
2023-04-29T22:19:41.046Z,3.47
2023-04-29T22:22:08.822Z,3.50
2023-04-29T22:24:35.803Z,2.90
2023-04-29T22:27:03.677Z,3.57
2023-04-29T22:29:30.784Z,3.77
2023-04-29T22:31:57.739Z,3.73
2023-04-29T22:34:24.670Z,4.03
2023-04-29T22:36:51.541Z,3.73
2023-04-29T22:39:18.702Z,4.03
2023-04-29T22:41:45.664Z,3.50
2023-04-29T22:44:12.637Z,3.03
2023-04-29T22:46:39.538Z,2.83
2023-04-29T22:49:06.412Z,2.70
2023-04-29T22:51:33.319Z,4.07
2023-04-29T22:54:00.251Z,2.73
2023-04-29T22:56:28.745Z,3.20
2023-04-29T22:58:55.964Z,3.70
2023-04-29T23:01:22.912Z,3.40
2023-04-29T23:03:49.864Z,3.30
2023-04-29T23:06:16.961Z,4.07
2023-04-29T23:08:46.630Z,5.03
2023-04-29T23:11:13.486Z,4.70
2023-04-29T23:13:40.779Z,4.47
2023-04-29T23:16:10.566Z,4.30
2023-04-29T23:18:37.918Z,3.50
2023-04-29T23:21:05.018Z,4.10
2023-04-29T23:23:31.925Z,4.17
2023-04-29T23:25:58.832Z,4.60
2023-04-29T23:28:25.912Z,3.83
2023-04-29T23:30:52.873Z,4.13
2023-04-29T23:33:19.802Z,3.60
2023-04-29T23:35:53.738Z,4.30
2023-04-29T23:38:20.711Z,4.30
2023-04-29T23:40:47.622Z,3.83
2023-04-29T23:43:19.343Z,3.40
2023-04-29T23:45:47.240Z,4.30
2023-04-29T23:48:16.010Z,3.60
2023-04-29T23:50:42.969Z,3.77
2023-04-29T23:53:09.929Z,4.00
2023-04-29T23:55:36.820Z,3.27
2023-04-29T23:58:04.059Z,3.37
